Time,TemperatureF,DewpointF,PressureIn,WindDirection,WindDirectionDegrees,WindSpeedMPH,WindSpeedGustMPH,Humidity,HourlyPrecipIn,Conditions,Clouds,dailyrainin,SoftwareType,DateUTC
2013-02-09 00:00:00,50.0,45.0,-100.00,North,-999,-999.0,-999.0,84,-99.99,,,0.09,,2013-02-09 08:00:00,
2013-02-09 00:52:00,50.0,45.0,-100.00,North,-999,-999.0,-999.0,84,-99.99,,,0.09,,2013-02-09 08:52:00,
2013-02-09 01:00:00,50.0,46.0,-100.00,North,-999,-999.0,-999.0,85,0.00,,,0.09,,2013-02-09 09:00:00,
2013-02-09 01:52:00,50.0,46.0,-100.00,North,-999,-999.0,-999.0,85,0.00,,,0.09,,2013-02-09 09:52:00,
2013-02-09 02:00:00,50.0,47.0,-100.00,North,-999,-999.0,-999.0,89,0.00,,,0.09,,2013-02-09 10:00:00,
2013-02-09 02:52:00,50.0,47.0,-100.00,North,-999,-999.0,-999.0,89,0.00,,,0.09,,2013-02-09 10:52:00,
2013-02-09 03:00:00,50.0,46.0,-100.00,North,-999,-999.0,-999.0,86,-99.99,,,0.06,,2013-02-09 11:00:00,
2013-02-09 03:52:00,50.0,46.0,-100.00,North,-999,-999.0,-999.0,86,-99.99,,,0.06,,2013-02-09 11:52:00,
2013-02-09 04:00:00,51.0,46.0,-100.00,North,-999,-999.0,-999.0,85,-99.99,,,0.06,,2013-02-09 12:00:00,
2013-02-09 04:52:00,51.0,46.0,-100.00,North,-999,-999.0,-999.0,85,-99.99,,,0.06,,2013-02-09 12:52:00,
2013-02-09 05:00:00,51.0,45.0,-100.00,North,-999,-999.0,-999.0,78,-99.99,,,0.06,,2013-02-09 13:00:00,
2013-02-09 05:52:00,51.0,45.0,-100.00,North,-999,-999.0,-999.0,78,-99.99,,,0.06,,2013-02-09 13:52:00,
2013-02-09 06:00:00,49.0,45.0,-100.00,North,-999,-999.0,-999.0,87,-99.99,,,0.05,,2013-02-09 14:00:00,
2013-02-09 06:52:00,49.0,45.0,-100.00,North,-999,-999.0,-999.0,87,-99.99,,,0.05,,2013-02-09 14:52:00,
2013-02-09 07:00:00,47.0,45.0,-100.00,North,-999,-999.0,-999.0,93,-99.99,,,0.05,,2013-02-09 15:00:00,
2013-02-09 07:52:00,47.0,45.0,-100.00,North,-999,-999.0,-999.0,93,-99.99,,,0.05,,2013-02-09 15:52:00,
2013-02-09 08:00:00,49.0,44.0,-100.00,North,-999,-999.0,-999.0,83,-99.99,,,0.04,,2013-02-09 16:00:00,
2013-02-09 08:52:00,49.0,44.0,-100.00,North,-999,-999.0,-999.0,83,-99.99,,,0.04,,2013-02-09 16:52:00,
2013-02-09 09:00:00,52.0,44.0,-100.00,North,-999,-999.0,-999.0,74,0.00,,,0.04,,2013-02-09 17:00:00,
2013-02-09 09:52:00,52.0,44.0,-100.00,North,-999,-999.0,-999.0,74,0.00,,,0.04,,2013-02-09 17:52:00,
2013-02-09 10:00:00,55.0,38.0,-100.00,North,-999,-999.0,-999.0,53,0.00,,,0.04,,2013-02-09 18:00:00,
2013-02-09 10:52:00,55.0,38.0,-100.00,North,-999,-999.0,-999.0,53,0.00,,,0.04,,2013-02-09 18:52:00,
2013-02-09 11:00:00,57.0,36.0,-100.00,North,-999,-999.0,-999.0,46,0.00,,,0.04,,2013-02-09 19:00:00,
2013-02-09 11:52:00,57.0,36.0,-100.00,North,-999,-999.0,-999.0,46,0.00,,,0.04,,2013-02-09 19:52:00,
2013-02-09 12:00:00,56.0,32.0,-100.00,North,-999,-999.0,-999.0,40,0.00,,,0.00,,2013-02-09 20:00:00,
2013-02-09 12:52:00,56.0,32.0,-100.00,North,-999,-999.0,-999.0,40,0.00,,,0.00,,2013-02-09 20:52:00,
2013-02-09 13:00:00,57.0,31.0,-100.00,North,-999,-999.0,-999.0,37,0.00,,,0.00,,2013-02-09 21:00:00,
2013-02-09 13:52:00,57.0,31.0,-100.00,North,-999,-999.0,-999.0,37,0.00,,,0.00,,2013-02-09 21:52:00,
2013-02-09 14:00:00,59.0,31.0,-100.00,North,-999,-999.0,-999.0,35,0.00,,,0.00,,2013-02-09 22:00:00,
2013-02-09 14:52:00,59.0,31.0,-100.00,North,-999,-999.0,-999.0,35,0.00,,,0.00,,2013-02-09 22:52:00,
2013-02-09 15:00:00,60.0,32.0,-100.00,North,-999,-999.0,-999.0,35,0.00,,,0.00,,2013-02-09 23:00:00,
2013-02-09 15:52:00,60.0,32.0,-100.00,North,-999,-999.0,-999.0,35,0.00,,,0.00,,2013-02-09 23:52:00,
2013-02-09 16:00:00,59.0,30.0,-100.00,North,-999,-999.0,-999.0,33,0.00,,,0.00,,2013-02-10 00:00:00,
2013-02-09 16:52:00,59.0,30.0,-100.00,North,-999,-999.0,-999.0,33,0.00,,,0.00,,2013-02-10 00:52:00,
2013-02-09 17:00:00,59.0,32.0,-100.00,North,-999,-999.0,-999.0,37,0.00,,,-99.99,,2013-02-10 01:00:00,
2013-02-09 17:52:00,59.0,32.0,-100.00,North,-999,-999.0,-999.0,37,0.00,,,-99.99,,2013-02-10 01:52:00,
2013-02-09 18:00:00,56.0,32.0,-100.00,North,-999,-999.0,-999.0,41,-99.99,,,0.00,,2013-02-10 02:00:00,
2013-02-09 18:52:00,56.0,32.0,-100.00,North,-999,-999.0,-999.0,41,-99.99,,,0.00,,2013-02-10 02:52:00,
2013-02-09 19:00:00,53.0,34.0,-100.00,North,-999,-999.0,-999.0,48,-99.99,,,0.00,,2013-02-10 03:00:00,
2013-02-09 19:52:00,53.0,34.0,-100.00,North,-999,-999.0,-999.0,48,-99.99,,,0.00,,2013-02-10 03:52:00,
2013-02-09 20:00:00,52.0,34.0,-100.00,North,-999,-999.0,-999.0,50,-99.99,,,0.00,,2013-02-10 04:00:00,
2013-02-09 20:52:00,52.0,34.0,-100.00,North,-999,-999.0,-999.0,50,-99.99,,,0.00,,2013-02-10 04:52:00,
2013-02-09 21:00:00,51.0,34.0,-100.00,North,-999,-999.0,-999.0,51,-99.99,,,0.00,,2013-02-10 05:00:00,
2013-02-09 22:00:00,51.0,33.0,-100.00,North,-999,-999.0,-999.0,50,-99.99,,,0.00,,2013-02-10 06:00:00,
2013-02-09 22:52:00,51.0,33.0,-100.00,North,-999,-999.0,-999.0,50,-99.99,,,0.00,,2013-02-10 06:52:00,
2013-02-09 23:00:00,49.0,33.0,-100.00,North,-999,-999.0,-999.0,55,-99.99,,,0.00,,2013-02-10 07:00:00,
2013-02-09 23:52:00,49.0,33.0,-100.00,North,-999,-999.0,-999.0,55,-99.99,,,0.00,,2013-02-10 07:52:00,